sensor_id;sensor_type;location;lat;lon;timestamp;pressure;altitude;pressure_sealevel;temperature;humidity
76794;BME280;65745;50.278;18.192;2023-02-15T00:02:02;101434.71;;;3.37;75.44
76794;BME280;65745;50.278;18.192;2023-02-15T00:04:34;101432.22;;;3.31;75.73
76794;BME280;65745;50.278;18.192;2023-02-15T00:07:20;101429.15;;;3.29;75.48
76794;BME280;65745;50.278;18.192;2023-02-15T00:09:52;101430.45;;;3.39;75.47
76794;BME280;65745;50.278;18.192;2023-02-15T00:12:24;101429.95;;;3.47;75.55
76794;BME280;65745;50.278;18.192;2023-02-15T00:14:57;101426.62;;;3.57;75.51
76794;BME280;65745;50.278;18.192;2023-02-15T00:17:30;101424.77;;;3.45;76.06
76794;BME280;65745;50.278;18.192;2023-02-15T00:20:02;101417.27;;;3.39;76.03
76794;BME280;65745;50.278;18.192;2023-02-15T00:22:35;101418.96;;;3.38;75.93
76794;BME280;65745;50.278;18.192;2023-02-15T00:25:08;101421.05;;;3.39;75.60
76794;BME280;65745;50.278;18.192;2023-02-15T00:27:41;101416.05;;;3.40;75.43
76794;BME280;65745;50.278;18.192;2023-02-15T00:30:14;101411.45;;;3.38;75.22
76794;BME280;65745;50.278;18.192;2023-02-15T00:32:48;101411.84;;;3.36;75.28
76794;BME280;65745;50.278;18.192;2023-02-15T00:35:20;101405.53;;;3.39;75.02
76794;BME280;65745;50.278;18.192;2023-02-15T00:37:53;101403.39;;;3.30;74.87
76794;BME280;65745;50.278;18.192;2023-02-15T00:40:26;101412.31;;;3.27;74.97
76794;BME280;65745;50.278;18.192;2023-02-15T00:42:59;101407.90;;;3.27;75.38
76794;BME280;65745;50.278;18.192;2023-02-15T00:45:32;101403.64;;;3.36;75.41
76794;BME280;65745;50.278;18.192;2023-02-15T00:48:04;101400.28;;;3.32;75.59
76794;BME280;65745;50.278;18.192;2023-02-15T00:50:37;101400.98;;;3.30;75.47
76794;BME280;65745;50.278;18.192;2023-02-15T00:53:09;101400.83;;;3.33;75.36
76794;BME280;65745;50.278;18.192;2023-02-15T00:55:41;101399.69;;;3.26;75.44
76794;BME280;65745;50.278;18.192;2023-02-15T00:58:14;101397.02;;;3.18;75.23
76794;BME280;65745;50.278;18.192;2023-02-15T01:00:47;101396.67;;;3.04;75.93
76794;BME280;65745;50.278;18.192;2023-02-15T01:03:21;101392.54;;;2.83;76.37
76794;BME280;65745;50.278;18.192;2023-02-15T01:05:53;101388.59;;;2.84;76.06
76794;BME280;65745;50.278;18.192;2023-02-15T01:08:26;101383.09;;;2.88;76.03
76794;BME280;65745;50.278;18.192;2023-02-15T01:11:04;101380.25;;;3.01;75.95
76794;BME280;65745;50.278;18.192;2023-02-15T01:13:37;101378.55;;;3.08;76.30
76794;BME280;65745;50.278;18.192;2023-02-15T01:16:10;101370.42;;;2.97;76.71
76794;BME280;65745;50.278;18.192;2023-02-15T01:18:42;101370.41;;;2.99;76.63
76794;BME280;65745;50.278;18.192;2023-02-15T01:21:18;101373.11;;;2.98;76.28
76794;BME280;65745;50.278;18.192;2023-02-15T01:23:50;101369.02;;;2.98;76.54
76794;BME280;65745;50.278;18.192;2023-02-15T01:26:23;101362.46;;;2.97;76.02
76794;BME280;65745;50.278;18.192;2023-02-15T01:28:55;101361.45;;;2.92;76.19
76794;BME280;65745;50.278;18.192;2023-02-15T01:31:27;101361.73;;;2.89;76.66
76794;BME280;65745;50.278;18.192;2023-02-15T01:34:00;101355.67;;;2.88;77.02
76794;BME280;65745;50.278;18.192;2023-02-15T01:36:34;101353.41;;;2.92;77.06
76794;BME280;65745;50.278;18.192;2023-02-15T01:39:07;101344.00;;;2.93;77.03
76794;BME280;65745;50.278;18.192;2023-02-15T01:41:41;101340.71;;;2.88;76.88
76794;BME280;65745;50.278;18.192;2023-02-15T01:44:50;101333.48;;;2.78;77.28
76794;BME280;65745;50.278;18.192;2023-02-15T01:47:26;101325.85;;;2.65;77.40
76794;BME280;65745;50.278;18.192;2023-02-15T01:50:06;101323.30;;;2.65;76.82
76794;BME280;65745;50.278;18.192;2023-02-15T01:52:44;101321.48;;;2.58;76.73
76794;BME280;65745;50.278;18.192;2023-02-15T01:55:19;101318.73;;;2.51;77.15
76794;BME280;65745;50.278;18.192;2023-02-15T01:57:53;101316.94;;;2.50;76.72
76794;BME280;65745;50.278;18.192;2023-02-15T02:00:26;101317.67;;;2.48;76.24
76794;BME280;65745;50.278;18.192;2023-02-15T02:02:58;101319.11;;;2.50;76.32
76794;BME280;65745;50.278;18.192;2023-02-15T02:05:31;101316.23;;;2.47;76.87
76794;BME280;65745;50.278;18.192;2023-02-15T02:08:05;101313.41;;;2.41;77.10
76794;BME280;65745;50.278;18.192;2023-02-15T02:10:40;101311.88;;;2.44;76.82
76794;BME280;65745;50.278;18.192;2023-02-15T02:13:14;101311.64;;;2.49;76.39
76794;BME280;65745;50.278;18.192;2023-02-15T02:15:54;101308.56;;;2.43;76.43
76794;BME280;65745;50.278;18.192;2023-02-15T02:18:39;101304.36;;;2.30;76.77
76794;BME280;65745;50.278;18.192;2023-02-15T02:21:39;101301.41;;;2.27;76.45
76794;BME280;65745;50.278;18.192;2023-02-15T02:24:53;101296.56;;;2.19;76.86
76794;BME280;65745;50.278;18.192;2023-02-15T02:27:35;101292.22;;;2.11;77.12
76794;BME280;65745;50.278;18.192;2023-02-15T02:30:33;101287.52;;;2.05;77.59
76794;BME280;65745;50.278;18.192;2023-02-15T02:33:40;101286.55;;;2.03;77.66
76794;BME280;65745;50.278;18.192;2023-02-15T02:36:24;101285.30;;;2.16;77.12
76794;BME280;65745;50.278;18.192;2023-02-15T02:39:11;101287.02;;;2.14;77.32
76794;BME280;65745;50.278;18.192;2023-02-15T02:41:54;101281.58;;;2.05;77.30
76794;BME280;65745;50.278;18.192;2023-02-15T02:44:34;101281.13;;;2.08;77.34
76794;BME280;65745;50.278;18.192;2023-02-15T02:47:12;101281.31;;;2.12;77.03
76794;BME280;65745;50.278;18.192;2023-02-15T02:49:46;101279.15;;;2.16;77.09
76794;BME280;65745;50.278;18.192;2023-02-15T02:52:40;101280.92;;;2.21;76.81
76794;BME280;65745;50.278;18.192;2023-02-15T02:55:15;101274.05;;;2.29;77.21
76794;BME280;65745;50.278;18.192;2023-02-15T02:57:55;101273.23;;;2.30;77.52
76794;BME280;65745;50.278;18.192;2023-02-15T03:00:32;101271.80;;;2.26;77.59
76794;BME280;65745;50.278;18.192;2023-02-15T03:03:09;101273.86;;;2.27;77.11
76794;BME280;65745;50.278;18.192;2023-02-15T03:05:49;101275.81;;;2.30;76.93
76794;BME280;65745;50.278;18.192;2023-02-15T03:08:25;101283.23;;;2.27;76.99
76794;BME280;65745;50.278;18.192;2023-02-15T03:11:02;101286.09;;;2.24;76.73
76794;BME280;65745;50.278;18.192;2023-02-15T03:13:36;101282.80;;;2.17;76.51
76794;BME280;65745;50.278;18.192;2023-02-15T03:16:11;101279.98;;;2.08;76.23
76794;BME280;65745;50.278;18.192;2023-02-15T03:19:04;101271.40;;;1.94;76.13
76794;BME280;65745;50.278;18.192;2023-02-15T03:21:42;101274.48;;;1.85;76.48
76794;BME280;65745;50.278;18.192;2023-02-15T03:24:23;101270.42;;;1.79;76.71
76794;BME280;65745;50.278;18.192;2023-02-15T03:26:58;101273.99;;;1.73;76.87
76794;BME280;65745;50.278;18.192;2023-02-15T03:29:33;101278.16;;;1.58;77.88
76794;BME280;65745;50.278;18.192;2023-02-15T03:32:09;101276.18;;;1.46;78.66
76794;BME280;65745;50.278;18.192;2023-02-15T03:34:42;101278.88;;;1.44;78.87
76794;BME280;65745;50.278;18.192;2023-02-15T03:37:18;101281.85;;;1.45;78.41
76794;BME280;65745;50.278;18.192;2023-02-15T03:39:58;101284.98;;;1.42;78.07
76794;BME280;65745;50.278;18.192;2023-02-15T03:42:55;101279.16;;;1.47;77.69
76794;BME280;65745;50.278;18.192;2023-02-15T03:45:32;101275.21;;;1.49;77.09
76794;BME280;65745;50.278;18.192;2023-02-15T03:48:06;101275.32;;;1.46;77.00
76794;BME280;65745;50.278;18.192;2023-02-15T03:50:41;101277.05;;;1.44;76.92
76794;BME280;65745;50.278;18.192;2023-02-15T03:53:30;101286.20;;;1.36;76.62
76794;BME280;65745;50.278;18.192;2023-02-15T03:56:03;101286.55;;;1.27;76.73
76794;BME280;65745;50.278;18.192;2023-02-15T03:58:35;101287.54;;;1.20;76.50
76794;BME280;65745;50.278;18.192;2023-02-15T04:01:27;101290.27;;;1.16;76.48
76794;BME280;65745;50.278;18.192;2023-02-15T04:04:35;101286.55;;;1.08;76.80
76794;BME280;65745;50.278;18.192;2023-02-15T04:07:09;101289.34;;;0.94;77.24
76794;BME280;65745;50.278;18.192;2023-02-15T04:09:41;101292.14;;;0.91;77.50
76794;BME280;65745;50.278;18.192;2023-02-15T04:12:32;101289.05;;;0.91;77.09
76794;BME280;65745;50.278;18.192;2023-02-15T04:15:05;101286.35;;;0.89;77.10
76794;BME280;65745;50.278;18.192;2023-02-15T04:17:59;101283.23;;;0.88;76.58
76794;BME280;65745;50.278;18.192;2023-02-15T04:20:34;101282.11;;;0.82;76.72
76794;BME280;65745;50.278;18.192;2023-02-15T04:23:24;101282.69;;;0.79;76.75
76794;BME280;65745;50.278;18.192;2023-02-15T04:26:14;101280.57;;;0.76;76.41
76794;BME280;65745;50.278;18.192;2023-02-15T04:28:46;101280.41;;;0.74;76.54
76794;BME280;65745;50.278;18.192;2023-02-15T04:31:18;101276.68;;;0.63;76.56
76794;BME280;65745;50.278;18.192;2023-02-15T04:33:51;101274.42;;;0.57;76.98
76794;BME280;65745;50.278;18.192;2023-02-15T04:36:23;101273.77;;;0.59;77.14
76794;BME280;65745;50.278;18.192;2023-02-15T04:38:56;101271.60;;;0.61;77.80
76794;BME280;65745;50.278;18.192;2023-02-15T04:41:28;101267.02;;;0.59;78.23
76794;BME280;65745;50.278;18.192;2023-02-15T04:44:00;101263.59;;;0.61;78.72
76794;BME280;65745;50.278;18.192;2023-02-15T04:46:33;101263.39;;;0.48;80.04
76794;BME280;65745;50.278;18.192;2023-02-15T04:49:05;101260.83;;;0.42;80.12
76794;BME280;65745;50.278;18.192;2023-02-15T04:51:38;101261.42;;;0.34;80.58
76794;BME280;65745;50.278;18.192;2023-02-15T04:54:10;101261.28;;;0.43;79.03
76794;BME280;65745;50.278;18.192;2023-02-15T04:56:43;101262.23;;;0.44;78.37
76794;BME280;65745;50.278;18.192;2023-02-15T04:59:16;101261.81;;;0.48;78.03
76794;BME280;65745;50.278;18.192;2023-02-15T05:01:48;101259.86;;;0.50;77.99
76794;BME280;65745;50.278;18.192;2023-02-15T05:04:20;101262.04;;;0.54;78.25
76794;BME280;65745;50.278;18.192;2023-02-15T05:06:53;101260.42;;;0.59;78.60
76794;BME280;65745;50.278;18.192;2023-02-15T05:09:26;101259.43;;;0.64;78.53
76794;BME280;65745;50.278;18.192;2023-02-15T05:11:58;101257.86;;;0.61;78.95
76794;BME280;65745;50.278;18.192;2023-02-15T05:14:30;101256.05;;;0.33;80.75
76794;BME280;65745;50.278;18.192;2023-02-15T05:17:03;101253.09;;;0.13;81.64
76794;BME280;65745;50.278;18.192;2023-02-15T05:19:36;101257.46;;;-0.05;82.07
76794;BME280;65745;50.278;18.192;2023-02-15T05:22:08;101253.92;;;0.01;80.33
76794;BME280;65745;50.278;18.192;2023-02-15T05:24:40;101254.61;;;-0.01;80.19
76794;BME280;65745;50.278;18.192;2023-02-15T05:27:31;101255.77;;;-0.01;79.80
76794;BME280;65745;50.278;18.192;2023-02-15T05:30:21;101258.16;;;0.01;79.89
76794;BME280;65745;50.278;18.192;2023-02-15T05:32:54;101260.17;;;0.05;80.38
76794;BME280;65745;50.278;18.192;2023-02-15T05:35:26;101264.63;;;0.12;80.03
76794;BME280;65745;50.278;18.192;2023-02-15T05:37:58;101265.52;;;0.17;79.89
76794;BME280;65745;50.278;18.192;2023-02-15T05:40:31;101268.98;;;0.19;79.16
76794;BME280;65745;50.278;18.192;2023-02-15T05:43:03;101268.53;;;0.24;78.63
76794;BME280;65745;50.278;18.192;2023-02-15T05:45:35;101272.11;;;0.22;78.35
76794;BME280;65745;50.278;18.192;2023-02-15T05:48:07;101271.18;;;0.17;78.36
76794;BME280;65745;50.278;18.192;2023-02-15T05:50:40;101274.10;;;0.14;78.41
76794;BME280;65745;50.278;18.192;2023-02-15T05:53:13;101276.26;;;0.13;78.38
76794;BME280;65745;50.278;18.192;2023-02-15T05:55:45;101278.91;;;0.13;78.59
76794;BME280;65745;50.278;18.192;2023-02-15T05:58:17;101275.52;;;0.17;79.01
76794;BME280;65745;50.278;18.192;2023-02-15T06:00:50;101275.06;;;0.15;79.30
76794;BME280;65745;50.278;18.192;2023-02-15T06:03:22;101276.64;;;-0.02;80.67
76794;BME280;65745;50.278;18.192;2023-02-15T06:05:56;101274.86;;;-0.06;80.26
76794;BME280;65745;50.278;18.192;2023-02-15T06:08:29;101274.81;;;-0.18;81.20
76794;BME280;65745;50.278;18.192;2023-02-15T06:11:01;101274.13;;;-0.22;80.32
76794;BME280;65745;50.278;18.192;2023-02-15T06:13:34;101273.89;;;-0.19;79.49
76794;BME280;65745;50.278;18.192;2023-02-15T06:16:08;101275.73;;;-0.21;79.67
76794;BME280;65745;50.278;18.192;2023-02-15T06:18:41;101279.23;;;-0.24;80.04
76794;BME280;65745;50.278;18.192;2023-02-15T06:21:13;101274.91;;;-0.21;80.50
76794;BME280;65745;50.278;18.192;2023-02-15T06:23:46;101272.39;;;-0.17;80.95
76794;BME280;65745;50.278;18.192;2023-02-15T06:26:18;101273.27;;;-0.14;80.85
76794;BME280;65745;50.278;18.192;2023-02-15T06:28:50;101272.05;;;-0.17;81.25
76794;BME280;65745;50.278;18.192;2023-02-15T06:31:22;101269.96;;;-0.23;81.70
76794;BME280;65745;50.278;18.192;2023-02-15T06:33:55;101267.90;;;-0.28;81.22
76794;BME280;65745;50.278;18.192;2023-02-15T06:36:32;101269.52;;;-0.25;81.23
76794;BME280;65745;50.278;18.192;2023-02-15T06:39:04;101267.38;;;-0.30;81.66
76794;BME280;65745;50.278;18.192;2023-02-15T06:41:37;101266.30;;;-0.24;81.50
76794;BME280;65745;50.278;18.192;2023-02-15T06:44:10;101271.90;;;-0.11;81.06
76794;BME280;65745;50.278;18.192;2023-02-15T06:46:42;101267.39;;;-0.04;81.31
76794;BME280;65745;50.278;18.192;2023-02-15T06:49:15;101265.67;;;0.10;81.08
76794;BME280;65745;50.278;18.192;2023-02-15T06:51:47;101264.23;;;0.17;81.05
76794;BME280;65745;50.278;18.192;2023-02-15T06:54:20;101267.36;;;0.14;81.50
76794;BME280;65745;50.278;18.192;2023-02-15T06:56:53;101272.52;;;0.23;80.76
76794;BME280;65745;50.278;18.192;2023-02-15T06:59:26;101270.79;;;0.27;80.51
76794;BME280;65745;50.278;18.192;2023-02-15T07:01:59;101276.42;;;0.35;80.65
76794;BME280;65745;50.278;18.192;2023-02-15T07:04:31;101272.71;;;0.42;80.21
76794;BME280;65745;50.278;18.192;2023-02-15T07:07:04;101274.17;;;0.52;79.93
76794;BME280;65745;50.278;18.192;2023-02-15T07:09:40;101268.23;;;0.66;80.07
76794;BME280;65745;50.278;18.192;2023-02-15T07:12:12;101268.52;;;0.80;79.72
76794;BME280;65745;50.278;18.192;2023-02-15T07:15:02;101267.05;;;1.02;79.96
76794;BME280;65745;50.278;18.192;2023-02-15T07:17:37;101266.45;;;1.17;79.82
76794;BME280;65745;50.278;18.192;2023-02-15T07:20:12;101261.59;;;1.29;79.77
76794;BME280;65745;50.278;18.192;2023-02-15T07:22:46;101260.71;;;1.40;79.60
76794;BME280;65745;50.278;18.192;2023-02-15T07:25:18;101253.41;;;1.44;79.41
76794;BME280;65745;50.278;18.192;2023-02-15T07:27:57;101251.36;;;1.43;79.46
76794;BME280;65745;50.278;18.192;2023-02-15T07:30:30;101249.11;;;1.37;79.93
76794;BME280;65745;50.278;18.192;2023-02-15T07:33:03;101247.51;;;1.36;79.99
76794;BME280;65745;50.278;18.192;2023-02-15T07:35:56;101250.36;;;1.35;80.02
76794;BME280;65745;50.278;18.192;2023-02-15T07:38:32;101248.70;;;1.38;80.34
76794;BME280;65745;50.278;18.192;2023-02-15T07:41:07;101248.05;;;1.42;80.34
76794;BME280;65745;50.278;18.192;2023-02-15T07:43:42;101245.66;;;1.58;80.18
76794;BME280;65745;50.278;18.192;2023-02-15T07:46:17;101245.94;;;1.70;79.33
76794;BME280;65745;50.278;18.192;2023-02-15T07:48:53;101248.11;;;1.83;79.44
76794;BME280;65745;50.278;18.192;2023-02-15T07:51:26;101243.61;;;1.97;79.11
76794;BME280;65745;50.278;18.192;2023-02-15T07:54:00;101242.84;;;2.07;78.35
76794;BME280;65745;50.278;18.192;2023-02-15T07:56:32;101239.70;;;2.18;78.19
76794;BME280;65745;50.278;18.192;2023-02-15T07:59:07;101236.02;;;2.34;77.94
76794;BME280;65745;50.278;18.192;2023-02-15T08:01:40;101231.55;;;2.54;78.45
76794;BME280;65745;50.278;18.192;2023-02-15T08:04:12;101226.67;;;2.57;77.73
76794;BME280;65745;50.278;18.192;2023-02-15T08:06:45;101227.55;;;2.58;77.39
76794;BME280;65745;50.278;18.192;2023-02-15T08:09:17;101225.86;;;2.74;77.47
76794;BME280;65745;50.278;18.192;2023-02-15T08:11:50;101222.23;;;2.85;76.73
76794;BME280;65745;50.278;18.192;2023-02-15T08:14:24;101221.59;;;2.88;76.04
76794;BME280;65745;50.278;18.192;2023-02-15T08:17:03;101221.45;;;2.98;76.68
76794;BME280;65745;50.278;18.192;2023-02-15T08:19:45;101222.98;;;3.03;76.49
76794;BME280;65745;50.278;18.192;2023-02-15T08:22:18;101218.15;;;3.07;76.93
76794;BME280;65745;50.278;18.192;2023-02-15T08:24:52;101213.11;;;3.05;76.28
76794;BME280;65745;50.278;18.192;2023-02-15T08:27:25;101208.90;;;3.13;76.72
76794;BME280;65745;50.278;18.192;2023-02-15T08:29:57;101204.00;;;3.21;76.27
76794;BME280;65745;50.278;18.192;2023-02-15T08:32:30;101204.34;;;3.09;75.56
76794;BME280;65745;50.278;18.192;2023-02-15T08:35:02;101205.59;;;3.10;75.92
76794;BME280;65745;50.278;18.192;2023-02-15T08:37:34;101200.91;;;3.11;75.58
76794;BME280;65745;50.278;18.192;2023-02-15T08:40:09;101198.79;;;3.24;75.80
76794;BME280;65745;50.278;18.192;2023-02-15T08:42:44;101196.14;;;3.40;75.77
76794;BME280;65745;50.278;18.192;2023-02-15T08:45:17;101191.60;;;3.48;74.89
76794;BME280;65745;50.278;18.192;2023-02-15T08:47:50;101193.00;;;3.46;74.92
76794;BME280;65745;50.278;18.192;2023-02-15T08:50:22;101192.10;;;3.55;74.75
76794;BME280;65745;50.278;18.192;2023-02-15T08:52:54;101189.43;;;3.53;74.26
76794;BME280;65745;50.278;18.192;2023-02-15T08:55:27;101188.25;;;3.56;74.61
76794;BME280;65745;50.278;18.192;2023-02-15T08:57:59;101185.98;;;3.73;75.06
76794;BME280;65745;50.278;18.192;2023-02-15T09:00:32;101184.70;;;3.74;73.94
76794;BME280;65745;50.278;18.192;2023-02-15T09:03:04;101174.95;;;3.76;74.47
76794;BME280;65745;50.278;18.192;2023-02-15T09:05:36;101175.70;;;3.82;74.06
76794;BME280;65745;50.278;18.192;2023-02-15T09:08:13;101174.35;;;3.95;73.86
76794;BME280;65745;50.278;18.192;2023-02-15T09:10:49;101165.70;;;4.09;73.99
76794;BME280;65745;50.278;18.192;2023-02-15T09:13:23;101163.41;;;4.23;73.84
76794;BME280;65745;50.278;18.192;2023-02-15T09:16:04;101162.85;;;4.27;73.26
76794;BME280;65745;50.278;18.192;2023-02-15T09:18:38;101153.55;;;4.34;73.55
76794;BME280;65745;50.278;18.192;2023-02-15T09:21:13;101150.41;;;4.54;73.45
76794;BME280;65745;50.278;18.192;2023-02-15T09:23:50;101149.23;;;4.56;72.70
76794;BME280;65745;50.278;18.192;2023-02-15T09:26:25;101153.87;;;4.70;72.96
76794;BME280;65745;50.278;18.192;2023-02-15T09:29:00;101146.02;;;4.87;72.86
76794;BME280;65745;50.278;18.192;2023-02-15T09:31:37;101146.77;;;5.07;72.12
76794;BME280;65745;50.278;18.192;2023-02-15T09:34:14;101144.84;;;5.20;71.89
76794;BME280;65745;50.278;18.192;2023-02-15T09:36:48;101137.27;;;5.19;71.41
76794;BME280;65745;50.278;18.192;2023-02-15T09:39:22;101137.12;;;5.31;71.89
76794;BME280;65745;50.278;18.192;2023-02-15T09:42:33;101130.09;;;5.39;71.42
76794;BME280;65745;50.278;18.192;2023-02-15T09:45:35;101131.48;;;5.68;71.12
76794;BME280;65745;50.278;18.192;2023-02-15T09:48:40;101132.90;;;5.88;70.48
76794;BME280;65745;50.278;18.192;2023-02-15T09:51:39;101132.52;;;5.90;69.69
76794;BME280;65745;50.278;18.192;2023-02-15T09:54:29;101132.18;;;5.96;69.49
76794;BME280;65745;50.278;18.192;2023-02-15T09:57:10;101129.41;;;5.96;69.25
76794;BME280;65745;50.278;18.192;2023-02-15T09:59:52;101126.69;;;6.20;69.31
76794;BME280;65745;50.278;18.192;2023-02-15T10:02:44;101123.95;;;6.47;69.62
76794;BME280;65745;50.278;18.192;2023-02-15T10:05:42;101122.98;;;6.72;69.23
76794;BME280;65745;50.278;18.192;2023-02-15T10:08:40;101116.40;;;6.80;68.07
76794;BME280;65745;50.278;18.192;2023-02-15T10:11:25;101114.06;;;6.78;67.62
76794;BME280;65745;50.278;18.192;2023-02-15T10:14:27;101110.34;;;6.76;67.12
76794;BME280;65745;50.278;18.192;2023-02-15T10:17:18;101104.28;;;6.62;66.91
76794;BME280;65745;50.278;18.192;2023-02-15T10:20:04;101103.27;;;6.69;67.60
76794;BME280;65745;50.278;18.192;2023-02-15T10:22:55;101098.88;;;6.67;66.73
76794;BME280;65745;50.278;18.192;2023-02-15T10:25:41;101097.94;;;6.62;66.66
76794;BME280;65745;50.278;18.192;2023-02-15T10:28:18;101092.42;;;6.56;66.67
76794;BME280;65745;50.278;18.192;2023-02-15T10:30:51;101090.15;;;6.45;66.14
76794;BME280;65745;50.278;18.192;2023-02-15T10:33:39;101085.55;;;6.43;67.03
76794;BME280;65745;50.278;18.192;2023-02-15T10:36:24;101081.96;;;6.46;67.37
76794;BME280;65745;50.278;18.192;2023-02-15T10:39:06;101079.17;;;6.51;66.81
76794;BME280;65745;50.278;18.192;2023-02-15T10:41:47;101073.15;;;6.51;67.08
76794;BME280;65745;50.278;18.192;2023-02-15T10:44:34;101069.41;;;6.60;66.97
76794;BME280;65745;50.278;18.192;2023-02-15T10:47:32;101066.54;;;6.70;67.38
76794;BME280;65745;50.278;18.192;2023-02-15T10:50:26;101069.06;;;6.92;67.42
76794;BME280;65745;50.278;18.192;2023-02-15T10:53:13;101064.84;;;7.00;67.08
76794;BME280;65745;50.278;18.192;2023-02-15T10:55:55;101062.55;;;7.11;67.23
76794;BME280;65745;50.278;18.192;2023-02-15T10:58:42;101058.62;;;7.28;66.91
76794;BME280;65745;50.278;18.192;2023-02-15T11:01:23;101050.11;;;7.49;66.82
76794;BME280;65745;50.278;18.192;2023-02-15T11:07:17;101047.38;;;7.84;65.73
76794;BME280;65745;50.278;18.192;2023-02-15T11:09:53;101036.27;;;7.98;65.56
76794;BME280;65745;50.278;18.192;2023-02-15T11:12:30;101041.67;;;8.25;65.38
76794;BME280;65745;50.278;18.192;2023-02-15T11:15:10;101040.90;;;8.33;64.82
76794;BME280;65745;50.278;18.192;2023-02-15T11:17:52;101040.67;;;8.29;64.31
76794;BME280;65745;50.278;18.192;2023-02-15T11:20:31;101040.98;;;8.39;64.68
76794;BME280;65745;50.278;18.192;2023-02-15T11:23:12;101036.66;;;8.64;63.49
76794;BME280;65745;50.278;18.192;2023-02-15T11:25:52;101033.39;;;8.90;63.00
76794;BME280;65745;50.278;18.192;2023-02-15T11:28:30;101032.55;;;8.98;62.85
76794;BME280;65745;50.278;18.192;2023-02-15T11:31:18;101032.78;;;9.11;62.82
76794;BME280;65745;50.278;18.192;2023-02-15T11:33:56;101025.33;;;9.02;62.05
76794;BME280;65745;50.278;18.192;2023-02-15T11:36:34;101023.95;;;8.86;61.59
76794;BME280;65745;50.278;18.192;2023-02-15T11:39:13;101022.69;;;8.85;61.48
76794;BME280;65745;50.278;18.192;2023-02-15T11:41:50;101024.41;;;8.81;61.34
76794;BME280;65745;50.278;18.192;2023-02-15T11:44:27;101017.48;;;8.80;61.09
76794;BME280;65745;50.278;18.192;2023-02-15T11:47:07;101017.04;;;8.85;61.32
76794;BME280;65745;50.278;18.192;2023-02-15T11:49:51;101016.50;;;8.93;61.50
76794;BME280;65745;50.278;18.192;2023-02-15T11:52:28;101008.37;;;9.00;61.77
76794;BME280;65745;50.278;18.192;2023-02-15T11:55:09;101008.11;;;9.09;61.57
76794;BME280;65745;50.278;18.192;2023-02-15T11:57:50;101002.40;;;9.12;60.94
76794;BME280;65745;50.278;18.192;2023-02-15T12:00:33;100999.41;;;9.14;60.72
76794;BME280;65745;50.278;18.192;2023-02-15T12:03:16;100997.58;;;9.20;60.97
76794;BME280;65745;50.278;18.192;2023-02-15T12:05:58;100990.79;;;9.26;60.80
76794;BME280;65745;50.278;18.192;2023-02-15T12:08:38;100996.50;;;9.27;60.47
76794;BME280;65745;50.278;18.192;2023-02-15T12:11:14;100990.17;;;9.23;60.15
76794;BME280;65745;50.278;18.192;2023-02-15T12:13:58;100985.68;;;9.19;60.08
76794;BME280;65745;50.278;18.192;2023-02-15T12:16:34;100985.21;;;9.16;60.28
76794;BME280;65745;50.278;18.192;2023-02-15T12:19:31;100976.37;;;9.18;60.31
76794;BME280;65745;50.278;18.192;2023-02-15T12:22:23;100972.02;;;9.21;59.92
76794;BME280;65745;50.278;18.192;2023-02-15T12:25:19;100971.14;;;9.20;59.75
76794;BME280;65745;50.278;18.192;2023-02-15T12:27:54;100961.67;;;9.20;60.21
76794;BME280;65745;50.278;18.192;2023-02-15T12:30:31;100960.02;;;9.26;59.91
76794;BME280;65745;50.278;18.192;2023-02-15T12:33:15;100946.14;;;9.27;59.90
76794;BME280;65745;50.278;18.192;2023-02-15T12:35:54;100949.41;;;9.35;60.30
76794;BME280;65745;50.278;18.192;2023-02-15T12:38:27;100945.61;;;9.39;59.65
76794;BME280;65745;50.278;18.192;2023-02-15T12:41:02;100944.69;;;9.42;59.23
76794;BME280;65745;50.278;18.192;2023-02-15T12:43:37;100941.40;;;9.41;58.66
76794;BME280;65745;50.278;18.192;2023-02-15T12:46:23;100937.63;;;9.37;58.74
76794;BME280;65745;50.278;18.192;2023-02-15T12:49:16;100938.34;;;9.42;58.74
76794;BME280;65745;50.278;18.192;2023-02-15T12:51:52;100934.80;;;9.48;58.58
76794;BME280;65745;50.278;18.192;2023-02-15T12:58:18;100925.09;;;9.59;57.44
76794;BME280;65745;50.278;18.192;2023-02-15T13:01:10;100922.10;;;9.61;57.69
76794;BME280;65745;50.278;18.192;2023-02-15T13:03:58;100919.92;;;9.54;57.41
76794;BME280;65745;50.278;18.192;2023-02-15T13:06:33;100911.46;;;9.57;57.57
76794;BME280;65745;50.278;18.192;2023-02-15T13:09:16;100908.31;;;9.60;57.99
76794;BME280;65745;50.278;18.192;2023-02-15T13:11:52;100905.05;;;9.61;58.00
76794;BME280;65745;50.278;18.192;2023-02-15T13:14:32;100901.16;;;9.66;57.42
76794;BME280;65745;50.278;18.192;2023-02-15T13:17:07;100899.75;;;9.66;56.99
76794;BME280;65745;50.278;18.192;2023-02-15T13:19:44;100896.89;;;9.68;57.34
76794;BME280;65745;50.278;18.192;2023-02-15T13:22:20;100897.67;;;9.69;57.01
76794;BME280;65745;50.278;18.192;2023-02-15T13:24:56;100900.76;;;9.74;56.99
76794;BME280;65745;50.278;18.192;2023-02-15T13:27:35;100896.85;;;9.75;56.73
76794;BME280;65745;50.278;18.192;2023-02-15T13:30:22;100894.70;;;9.72;56.80
76794;BME280;65745;50.278;18.192;2023-02-15T13:32:59;100893.15;;;9.77;56.72
76794;BME280;65745;50.278;18.192;2023-02-15T13:35:41;100892.80;;;9.86;57.22
76794;BME280;65745;50.278;18.192;2023-02-15T13:38:35;100891.30;;;10.05;57.25
76794;BME280;65745;50.278;18.192;2023-02-15T13:41:14;100887.84;;;10.55;56.92
76794;BME280;65745;50.278;18.192;2023-02-15T13:43:56;100888.98;;;11.60;55.73
76794;BME280;65745;50.278;18.192;2023-02-15T13:46:55;100889.61;;;13.28;51.84
76794;BME280;65745;50.278;18.192;2023-02-15T13:49:43;100880.80;;;15.48;48.46
76794;BME280;65745;50.278;18.192;2023-02-15T13:52:30;100882.42;;;17.15;44.54
76794;BME280;65745;50.278;18.192;2023-02-15T13:55:23;100873.63;;;18.29;43.23